sensor_id;sensor_type;location;lat;lon;timestamp;P1;durP1;ratioP1;P2;durP2;ratioP2
23743;SDS011;12052;53.478;10.182;2023-05-14T00:01:07;5.50;;;4.55;;
23743;SDS011;12052;53.478;10.182;2023-05-14T00:03:32;6.80;;;4.40;;
23743;SDS011;12052;53.478;10.182;2023-05-14T00:05:58;10.77;;;4.05;;
23743;SDS011;12052;53.478;10.182;2023-05-14T00:08:24;7.10;;;4.35;;
23743;SDS011;12052;53.478;10.182;2023-05-14T00:10:49;9.60;;;4.32;;
23743;SDS011;12052;53.478;10.182;2023-05-14T00:13:15;7.13;;;4.40;;
23743;SDS011;12052;53.478;10.182;2023-05-14T00:15:40;5.05;;;4.25;;
23743;SDS011;12052;53.478;10.182;2023-05-14T00:18:06;6.55;;;3.83;;
23743;SDS011;12052;53.478;10.182;2023-05-14T00:20:31;8.68;;;4.38;;
23743;SDS011;12052;53.478;10.182;2023-05-14T00:22:57;9.85;;;4.25;;
23743;SDS011;12052;53.478;10.182;2023-05-14T00:25:23;5.43;;;4.15;;
23743;SDS011;12052;53.478;10.182;2023-05-14T00:27:48;6.38;;;4.05;;
23743;SDS011;12052;53.478;10.182;2023-05-14T00:30:14;5.85;;;3.88;;
23743;SDS011;12052;53.478;10.182;2023-05-14T00:32:39;4.90;;;3.90;;
23743;SDS011;12052;53.478;10.182;2023-05-14T00:35:05;6.97;;;4.18;;
23743;SDS011;12052;53.478;10.182;2023-05-14T00:37:31;6.63;;;4.30;;
23743;SDS011;12052;53.478;10.182;2023-05-14T00:39:56;6.57;;;3.92;;
23743;SDS011;12052;53.478;10.182;2023-05-14T00:42:22;7.85;;;4.50;;
23743;SDS011;12052;53.478;10.182;2023-05-14T00:44:48;5.00;;;3.90;;
23743;SDS011;12052;53.478;10.182;2023-05-14T00:47:13;10.27;;;4.68;;
23743;SDS011;12052;53.478;10.182;2023-05-14T00:49:39;8.73;;;3.92;;
23743;SDS011;12052;53.478;10.182;2023-05-14T00:52:06;8.35;;;4.20;;
23743;SDS011;12052;53.478;10.182;2023-05-14T00:54:31;4.65;;;3.80;;
23743;SDS011;12052;53.478;10.182;2023-05-14T00:56:57;5.82;;;4.03;;
23743;SDS011;12052;53.478;10.182;2023-05-14T00:59:24;5.75;;;4.40;;
23743;SDS011;12052;53.478;10.182;2023-05-14T01:01:50;6.45;;;4.30;;
23743;SDS011;12052;53.478;10.182;2023-05-14T01:04:15;7.68;;;4.40;;
23743;SDS011;12052;53.478;10.182;2023-05-14T01:09:18;7.30;;;4.38;;
23743;SDS011;12052;53.478;10.182;2023-05-14T01:14:28;7.47;;;4.38;;
23743;SDS011;12052;53.478;10.182;2023-05-14T01:16:58;10.60;;;4.37;;
23743;SDS011;12052;53.478;10.182;2023-05-14T01:19:38;7.32;;;4.70;;
23743;SDS011;12052;53.478;10.182;2023-05-14T01:22:08;7.33;;;4.40;;
23743;SDS011;12052;53.478;10.182;2023-05-14T01:24:35;5.65;;;4.10;;
23743;SDS011;12052;53.478;10.182;2023-05-14T01:27:17;6.30;;;4.18;;
23743;SDS011;12052;53.478;10.182;2023-05-14T01:32:52;12.20;;;4.72;;
23743;SDS011;12052;53.478;10.182;2023-05-14T01:35:21;9.07;;;4.70;;
23743;SDS011;12052;53.478;10.182;2023-05-14T01:37:49;9.25;;;4.88;;
23743;SDS011;12052;53.478;10.182;2023-05-14T01:40:17;6.82;;;4.53;;
23743;SDS011;12052;53.478;10.182;2023-05-14T01:42:43;6.75;;;4.90;;
23743;SDS011;12052;53.478;10.182;2023-05-14T01:45:09;7.15;;;4.05;;
23743;SDS011;12052;53.478;10.182;2023-05-14T01:47:35;6.35;;;4.82;;
23743;SDS011;12052;53.478;10.182;2023-05-14T01:50:00;5.78;;;4.55;;
23743;SDS011;12052;53.478;10.182;2023-05-14T01:52:26;8.90;;;5.07;;
23743;SDS011;12052;53.478;10.182;2023-05-14T01:54:52;6.03;;;4.78;;
23743;SDS011;12052;53.478;10.182;2023-05-14T01:57:17;7.13;;;4.75;;
23743;SDS011;12052;53.478;10.182;2023-05-14T01:59:43;10.25;;;5.18;;
23743;SDS011;12052;53.478;10.182;2023-05-14T02:02:08;11.50;;;5.78;;
23743;SDS011;12052;53.478;10.182;2023-05-14T02:04:34;7.40;;;5.47;;
23743;SDS011;12052;53.478;10.182;2023-05-14T02:06:59;6.45;;;5.10;;
23743;SDS011;12052;53.478;10.182;2023-05-14T02:09:25;8.40;;;5.07;;
23743;SDS011;12052;53.478;10.182;2023-05-14T02:11:50;9.20;;;4.90;;
23743;SDS011;12052;53.478;10.182;2023-05-14T02:14:16;11.35;;;5.32;;
23743;SDS011;12052;53.478;10.182;2023-05-14T02:16:41;7.32;;;4.80;;
23743;SDS011;12052;53.478;10.182;2023-05-14T02:19:07;6.28;;;4.82;;
23743;SDS011;12052;53.478;10.182;2023-05-14T02:21:33;8.07;;;5.20;;
23743;SDS011;12052;53.478;10.182;2023-05-14T02:23:58;7.30;;;4.60;;
23743;SDS011;12052;53.478;10.182;2023-05-14T02:26:24;8.63;;;5.00;;
23743;SDS011;12052;53.478;10.182;2023-05-14T02:28:50;7.18;;;5.30;;
23743;SDS011;12052;53.478;10.182;2023-05-14T02:31:15;9.20;;;5.30;;
23743;SDS011;12052;53.478;10.182;2023-05-14T02:33:43;6.90;;;5.55;;
23743;SDS011;12052;53.478;10.182;2023-05-14T02:36:08;12.00;;;5.50;;
23743;SDS011;12052;53.478;10.182;2023-05-14T02:38:34;7.72;;;5.82;;
23743;SDS011;12052;53.478;10.182;2023-05-14T02:41:00;8.82;;;5.57;;
23743;SDS011;12052;53.478;10.182;2023-05-14T02:43:25;8.27;;;5.18;;
23743;SDS011;12052;53.478;10.182;2023-05-14T02:45:51;9.27;;;5.38;;
23743;SDS011;12052;53.478;10.182;2023-05-14T02:48:16;8.05;;;5.47;;
23743;SDS011;12052;53.478;10.182;2023-05-14T02:50:42;11.00;;;5.50;;
23743;SDS011;12052;53.478;10.182;2023-05-14T02:53:07;8.88;;;5.93;;
23743;SDS011;12052;53.478;10.182;2023-05-14T02:55:33;8.13;;;5.75;;
23743;SDS011;12052;53.478;10.182;2023-05-14T02:57:59;7.15;;;5.15;;
23743;SDS011;12052;53.478;10.182;2023-05-14T03:00:25;11.43;;;6.13;;
23743;SDS011;12052;53.478;10.182;2023-05-14T03:02:51;9.40;;;5.35;;
23743;SDS011;12052;53.478;10.182;2023-05-14T03:05:16;8.32;;;4.88;;
23743;SDS011;12052;53.478;10.182;2023-05-14T03:07:42;9.13;;;5.80;;
23743;SDS011;12052;53.478;10.182;2023-05-14T03:10:07;7.90;;;5.50;;
23743;SDS011;12052;53.478;10.182;2023-05-14T03:12:33;8.63;;;6.05;;
23743;SDS011;12052;53.478;10.182;2023-05-14T03:14:59;7.28;;;5.35;;
23743;SDS011;12052;53.478;10.182;2023-05-14T03:17:24;6.88;;;5.00;;
23743;SDS011;12052;53.478;10.182;2023-05-14T03:19:50;13.32;;;5.45;;
23743;SDS011;12052;53.478;10.182;2023-05-14T03:22:16;8.43;;;5.70;;
23743;SDS011;12052;53.478;10.182;2023-05-14T03:24:41;10.50;;;6.00;;
23743;SDS011;12052;53.478;10.182;2023-05-14T03:27:07;7.82;;;5.40;;
23743;SDS011;12052;53.478;10.182;2023-05-14T03:29:32;7.00;;;5.40;;
23743;SDS011;12052;53.478;10.182;2023-05-14T03:31:58;8.77;;;5.45;;
23743;SDS011;12052;53.478;10.182;2023-05-14T03:34:24;9.73;;;5.55;;
23743;SDS011;12052;53.478;10.182;2023-05-14T03:36:49;9.02;;;6.28;;
23743;SDS011;12052;53.478;10.182;2023-05-14T03:39:15;9.30;;;6.43;;
23743;SDS011;12052;53.478;10.182;2023-05-14T03:41:44;6.78;;;5.22;;
23743;SDS011;12052;53.478;10.182;2023-05-14T03:44:10;6.68;;;5.07;;
23743;SDS011;12052;53.478;10.182;2023-05-14T03:46:36;8.80;;;5.70;;
23743;SDS011;12052;53.478;10.182;2023-05-14T03:49:02;7.80;;;5.97;;
23743;SDS011;12052;53.478;10.182;2023-05-14T03:51:27;7.75;;;5.47;;
23743;SDS011;12052;53.478;10.182;2023-05-14T03:53:53;10.57;;;6.25;;
23743;SDS011;12052;53.478;10.182;2023-05-14T03:56:18;9.38;;;5.82;;
23743;SDS011;12052;53.478;10.182;2023-05-14T03:58:44;8.32;;;5.65;;
23743;SDS011;12052;53.478;10.182;2023-05-14T04:01:10;9.70;;;5.68;;
23743;SDS011;12052;53.478;10.182;2023-05-14T04:03:35;7.43;;;5.68;;
23743;SDS011;12052;53.478;10.182;2023-05-14T04:06:01;9.30;;;6.03;;
23743;SDS011;12052;53.478;10.182;2023-05-14T04:08:26;8.73;;;5.63;;
23743;SDS011;12052;53.478;10.182;2023-05-14T04:10:52;10.70;;;5.97;;
23743;SDS011;12052;53.478;10.182;2023-05-14T04:13:18;9.75;;;6.03;;
23743;SDS011;12052;53.478;10.182;2023-05-14T04:15:43;11.05;;;6.40;;
23743;SDS011;12052;53.478;10.182;2023-05-14T04:18:09;7.90;;;6.18;;
23743;SDS011;12052;53.478;10.182;2023-05-14T04:20:35;10.15;;;6.47;;
23743;SDS011;12052;53.478;10.182;2023-05-14T04:23:00;9.68;;;6.07;;
23743;SDS011;12052;53.478;10.182;2023-05-14T04:25:26;12.50;;;6.47;;
23743;SDS011;12052;53.478;10.182;2023-05-14T04:27:52;9.18;;;6.32;;
23743;SDS011;12052;53.478;10.182;2023-05-14T04:30:18;11.88;;;6.15;;
23743;SDS011;12052;53.478;10.182;2023-05-14T04:32:43;8.75;;;6.10;;
23743;SDS011;12052;53.478;10.182;2023-05-14T04:35:09;9.40;;;6.43;;
23743;SDS011;12052;53.478;10.182;2023-05-14T04:37:35;8.25;;;5.80;;
23743;SDS011;12052;53.478;10.182;2023-05-14T04:40:01;9.68;;;6.22;;
23743;SDS011;12052;53.478;10.182;2023-05-14T04:42:26;9.50;;;6.28;;
23743;SDS011;12052;53.478;10.182;2023-05-14T04:44:52;12.00;;;5.97;;
23743;SDS011;12052;53.478;10.182;2023-05-14T04:47:17;9.05;;;6.20;;
23743;SDS011;12052;53.478;10.182;2023-05-14T04:49:44;8.98;;;6.47;;
23743;SDS011;12052;53.478;10.182;2023-05-14T04:52:10;9.88;;;5.72;;
23743;SDS011;12052;53.478;10.182;2023-05-14T04:54:36;10.73;;;6.75;;
23743;SDS011;12052;53.478;10.182;2023-05-14T04:57:01;8.73;;;5.55;;
23743;SDS011;12052;53.478;10.182;2023-05-14T04:59:27;8.07;;;6.32;;
23743;SDS011;12052;53.478;10.182;2023-05-14T05:01:53;8.40;;;5.60;;
23743;SDS011;12052;53.478;10.182;2023-05-14T05:04:19;8.32;;;5.68;;
23743;SDS011;12052;53.478;10.182;2023-05-14T05:06:45;8.80;;;5.75;;
23743;SDS011;12052;53.478;10.182;2023-05-14T05:09:10;7.80;;;5.55;;
23743;SDS011;12052;53.478;10.182;2023-05-14T05:11:36;8.77;;;6.07;;
23743;SDS011;12052;53.478;10.182;2023-05-14T05:14:02;9.32;;;6.70;;
23743;SDS011;12052;53.478;10.182;2023-05-14T05:16:28;11.15;;;6.25;;
23743;SDS011;12052;53.478;10.182;2023-05-14T05:18:54;12.65;;;5.95;;
23743;SDS011;12052;53.478;10.182;2023-05-14T05:21:19;8.48;;;5.90;;
23743;SDS011;12052;53.478;10.182;2023-05-14T05:23:45;6.88;;;5.40;;
23743;SDS011;12052;53.478;10.182;2023-05-14T05:26:10;9.48;;;6.00;;
23743;SDS011;12052;53.478;10.182;2023-05-14T05:28:36;8.95;;;5.55;;
23743;SDS011;12052;53.478;10.182;2023-05-14T05:31:01;9.88;;;5.20;;
23743;SDS011;12052;53.478;10.182;2023-05-14T05:33:27;7.15;;;4.97;;
23743;SDS011;12052;53.478;10.182;2023-05-14T05:35:53;9.55;;;5.82;;
23743;SDS011;12052;53.478;10.182;2023-05-14T05:38:18;8.30;;;5.53;;
23743;SDS011;12052;53.478;10.182;2023-05-14T05:40:44;8.68;;;6.07;;
23743;SDS011;12052;53.478;10.182;2023-05-14T05:43:09;6.82;;;5.88;;
23743;SDS011;12052;53.478;10.182;2023-05-14T05:45:35;13.93;;;5.80;;
23743;SDS011;12052;53.478;10.182;2023-05-14T05:48:01;6.70;;;5.13;;
23743;SDS011;12052;53.478;10.182;2023-05-14T05:50:26;7.97;;;5.72;;
23743;SDS011;12052;53.478;10.182;2023-05-14T05:52:52;7.88;;;5.55;;
23743;SDS011;12052;53.478;10.182;2023-05-14T05:55:17;7.85;;;5.50;;
23743;SDS011;12052;53.478;10.182;2023-05-14T05:57:43;7.15;;;5.05;;
23743;SDS011;12052;53.478;10.182;2023-05-14T06:00:09;7.55;;;5.43;;
23743;SDS011;12052;53.478;10.182;2023-05-14T06:02:37;7.40;;;5.18;;
23743;SDS011;12052;53.478;10.182;2023-05-14T06:05:03;5.72;;;4.85;;
23743;SDS011;12052;53.478;10.182;2023-05-14T06:07:29;5.82;;;4.65;;
23743;SDS011;12052;53.478;10.182;2023-05-14T06:09:55;6.13;;;4.95;;
23743;SDS011;12052;53.478;10.182;2023-05-14T06:12:20;6.68;;;4.82;;
23743;SDS011;12052;53.478;10.182;2023-05-14T06:14:46;5.10;;;4.60;;
23743;SDS011;12052;53.478;10.182;2023-05-14T06:17:12;11.10;;;6.40;;
23743;SDS011;12052;53.478;10.182;2023-05-14T06:19:37;11.02;;;5.28;;
23743;SDS011;12052;53.478;10.182;2023-05-14T06:22:03;6.95;;;5.07;;
23743;SDS011;12052;53.478;10.182;2023-05-14T06:24:29;9.07;;;5.13;;
23743;SDS011;12052;53.478;10.182;2023-05-14T06:26:54;7.25;;;4.88;;
23743;SDS011;12052;53.478;10.182;2023-05-14T06:29:20;10.57;;;5.40;;
23743;SDS011;12052;53.478;10.182;2023-05-14T06:31:45;5.65;;;4.97;;
23743;SDS011;12052;53.478;10.182;2023-05-14T06:34:11;5.38;;;4.80;;
23743;SDS011;12052;53.478;10.182;2023-05-14T06:36:36;6.82;;;4.68;;
23743;SDS011;12052;53.478;10.182;2023-05-14T06:39:02;10.30;;;4.40;;
23743;SDS011;12052;53.478;10.182;2023-05-14T06:41:28;7.03;;;4.93;;
23743;SDS011;12052;53.478;10.182;2023-05-14T06:43:53;9.18;;;4.43;;
23743;SDS011;12052;53.478;10.182;2023-05-14T06:46:19;6.72;;;4.35;;
23743;SDS011;12052;53.478;10.182;2023-05-14T06:48:45;6.50;;;4.40;;
23743;SDS011;12052;53.478;10.182;2023-05-14T06:51:11;8.27;;;5.05;;
23743;SDS011;12052;53.478;10.182;2023-05-14T06:53:37;6.10;;;4.30;;
23743;SDS011;12052;53.478;10.182;2023-05-14T06:56:03;8.00;;;4.80;;
23743;SDS011;12052;53.478;10.182;2023-05-14T06:58:29;5.47;;;4.28;;
23743;SDS011;12052;53.478;10.182;2023-05-14T07:00:55;7.22;;;4.45;;
23743;SDS011;12052;53.478;10.182;2023-05-14T07:03:20;5.18;;;4.22;;
23743;SDS011;12052;53.478;10.182;2023-05-14T07:05:46;6.85;;;4.57;;
23743;SDS011;12052;53.478;10.182;2023-05-14T07:08:12;8.52;;;4.40;;
23743;SDS011;12052;53.478;10.182;2023-05-14T07:10:37;6.63;;;4.15;;
23743;SDS011;12052;53.478;10.182;2023-05-14T07:13:03;9.52;;;4.07;;
23743;SDS011;12052;53.478;10.182;2023-05-14T07:15:29;6.20;;;4.13;;
23743;SDS011;12052;53.478;10.182;2023-05-14T07:17:55;6.43;;;3.88;;
23743;SDS011;12052;53.478;10.182;2023-05-14T07:20:21;7.55;;;3.97;;
23743;SDS011;12052;53.478;10.182;2023-05-14T07:22:48;6.30;;;4.40;;
23743;SDS011;12052;53.478;10.182;2023-05-14T07:25:13;5.45;;;4.00;;
23743;SDS011;12052;53.478;10.182;2023-05-14T07:27:39;6.70;;;3.85;;
23743;SDS011;12052;53.478;10.182;2023-05-14T07:30:05;5.30;;;4.43;;
23743;SDS011;12052;53.478;10.182;2023-05-14T07:32:32;5.53;;;4.20;;
23743;SDS011;12052;53.478;10.182;2023-05-14T07:34:57;4.88;;;4.00;;
23743;SDS011;12052;53.478;10.182;2023-05-14T07:37:23;6.53;;;4.47;;
23743;SDS011;12052;53.478;10.182;2023-05-14T07:39:50;5.10;;;4.30;;
23743;SDS011;12052;53.478;10.182;2023-05-14T07:42:16;8.93;;;4.10;;
23743;SDS011;12052;53.478;10.182;2023-05-14T07:44:42;8.02;;;3.90;;
23743;SDS011;12052;53.478;10.182;2023-05-14T07:47:08;7.32;;;3.58;;
23743;SDS011;12052;53.478;10.182;2023-05-14T07:49:34;5.28;;;3.90;;
23743;SDS011;12052;53.478;10.182;2023-05-14T07:52:00;7.85;;;3.80;;
23743;SDS011;12052;53.478;10.182;2023-05-14T07:54:26;5.50;;;3.78;;
23743;SDS011;12052;53.478;10.182;2023-05-14T07:56:51;4.53;;;3.78;;
23743;SDS011;12052;53.478;10.182;2023-05-14T07:59:17;4.40;;;3.35;;
23743;SDS011;12052;53.478;10.182;2023-05-14T08:01:42;8.20;;;3.15;;
23743;SDS011;12052;53.478;10.182;2023-05-14T08:04:08;4.85;;;3.80;;
23743;SDS011;12052;53.478;10.182;2023-05-14T08:06:35;4.97;;;3.80;;
23743;SDS011;12052;53.478;10.182;2023-05-14T08:09:01;6.20;;;3.45;;
23743;SDS011;12052;53.478;10.182;2023-05-14T08:11:29;5.68;;;3.60;;
23743;SDS011;12052;53.478;10.182;2023-05-14T08:13:55;5.95;;;3.03;;
23743;SDS011;12052;53.478;10.182;2023-05-14T08:16:21;7.25;;;3.42;;
23743;SDS011;12052;53.478;10.182;2023-05-14T08:18:47;4.38;;;3.30;;
23743;SDS011;12052;53.478;10.182;2023-05-14T08:21:13;6.13;;;3.30;;
23743;SDS011;12052;53.478;10.182;2023-05-14T08:23:38;5.35;;;3.00;;
23743;SDS011;12052;53.478;10.182;2023-05-14T08:26:04;3.17;;;2.67;;
23743;SDS011;12052;53.478;10.182;2023-05-14T08:28:30;4.70;;;2.78;;
23743;SDS011;12052;53.478;10.182;2023-05-14T08:30:55;5.68;;;3.17;;
23743;SDS011;12052;53.478;10.182;2023-05-14T08:33:21;9.23;;;3.72;;
23743;SDS011;12052;53.478;10.182;2023-05-14T08:35:48;4.32;;;2.83;;
23743;SDS011;12052;53.478;10.182;2023-05-14T08:38:15;6.57;;;3.42;;
23743;SDS011;12052;53.478;10.182;2023-05-14T08:40:41;4.88;;;3.33;;
23743;SDS011;12052;53.478;10.182;2023-05-14T08:43:10;5.85;;;3.13;;
23743;SDS011;12052;53.478;10.182;2023-05-14T08:45:37;9.55;;;3.20;;
23743;SDS011;12052;53.478;10.182;2023-05-14T08:48:04;6.53;;;3.35;;
23743;SDS011;12052;53.478;10.182;2023-05-14T08:50:33;3.47;;;2.88;;
23743;SDS011;12052;53.478;10.182;2023-05-14T08:53:00;5.80;;;2.85;;
23743;SDS011;12052;53.478;10.182;2023-05-14T08:55:25;5.75;;;3.10;;
23743;SDS011;12052;53.478;10.182;2023-05-14T08:57:52;5.57;;;3.15;;
23743;SDS011;12052;53.478;10.182;2023-05-14T09:00:18;4.75;;;3.00;;
23743;SDS011;12052;53.478;10.182;2023-05-14T09:02:44;5.32;;;3.05;;
23743;SDS011;12052;53.478;10.182;2023-05-14T09:05:11;4.00;;;3.13;;
23743;SDS011;12052;53.478;10.182;2023-05-14T09:07:38;6.15;;;2.67;;
23743;SDS011;12052;53.478;10.182;2023-05-14T09:10:05;6.22;;;2.95;;
23743;SDS011;12052;53.478;10.182;2023-05-14T09:12:32;4.07;;;2.97;;
23743;SDS011;12052;53.478;10.182;2023-05-14T09:14:58;7.15;;;3.08;;
23743;SDS011;12052;53.478;10.182;2023-05-14T09:17:24;6.00;;;3.10;;
23743;SDS011;12052;53.478;10.182;2023-05-14T09:19:51;6.60;;;3.00;;
23743;SDS011;12052;53.478;10.182;2023-05-14T09:22:18;5.10;;;2.88;;
23743;SDS011;12052;53.478;10.182;2023-05-14T09:24:44;3.13;;;2.80;;
23743;SDS011;12052;53.478;10.182;2023-05-14T09:27:19;3.95;;;2.47;;
23743;SDS011;12052;53.478;10.182;2023-05-14T09:29:46;7.80;;;2.83;;
23743;SDS011;12052;53.478;10.182;2023-05-14T09:32:12;4.47;;;3.20;;
23743;SDS011;12052;53.478;10.182;2023-05-14T09:34:38;3.58;;;2.55;;
23743;SDS011;12052;53.478;10.182;2023-05-14T09:37:05;4.47;;;2.80;;
23743;SDS011;12052;53.478;10.182;2023-05-14T09:39:32;3.45;;;2.72;;
23743;SDS011;12052;53.478;10.182;2023-05-14T09:42:00;4.50;;;3.28;;
23743;SDS011;12052;53.478;10.182;2023-05-14T09:44:26;6.38;;;3.13;;
23743;SDS011;12052;53.478;10.182;2023-05-14T09:46:52;5.22;;;3.22;;
23743;SDS011;12052;53.478;10.182;2023-05-14T09:49:18;4.32;;;2.58;;
23743;SDS011;12052;53.478;10.182;2023-05-14T09:51:44;5.28;;;2.70;;
23743;SDS011;12052;53.478;10.182;2023-05-14T09:54:10;4.47;;;3.00;;
23743;SDS011;12052;53.478;10.182;2023-05-14T09:56:36;6.45;;;2.72;;
23743;SDS011;12052;53.478;10.182;2023-05-14T09:59:03;6.15;;;2.30;;
23743;SDS011;12052;53.478;10.182;2023-05-14T10:01:29;5.10;;;2.47;;
23743;SDS011;12052;53.478;10.182;2023-05-14T10:03:58;3.72;;;2.63;;
23743;SDS011;12052;53.478;10.182;2023-05-14T10:06:25;7.65;;;2.70;;
23743;SDS011;12052;53.478;10.182;2023-05-14T10:08:59;3.08;;;2.40;;
23743;SDS011;12052;53.478;10.182;2023-05-14T10:11:27;4.95;;;2.53;;
23743;SDS011;12052;53.478;10.182;2023-05-14T10:14:07;2.70;;;2.40;;
23743;SDS011;12052;53.478;10.182;2023-05-14T10:16:48;8.15;;;3.10;;
23743;SDS011;12052;53.478;10.182;2023-05-14T10:19:15;4.00;;;2.90;;
23743;SDS011;12052;53.478;10.182;2023-05-14T10:21:44;12.50;;;3.08;;
23743;SDS011;12052;53.478;10.182;2023-05-14T10:24:13;4.03;;;2.90;;
23743;SDS011;12052;53.478;10.182;2023-05-14T10:26:39;9.45;;;2.97;;
23743;SDS011;12052;53.478;10.182;2023-05-14T10:29:06;4.68;;;2.70;;
23743;SDS011;12052;53.478;10.182;2023-05-14T10:31:53;4.05;;;3.15;;
23743;SDS011;12052;53.478;10.182;2023-05-14T10:34:35;3.75;;;2.72;;
23743;SDS011;12052;53.478;10.182;2023-05-14T10:37:09;4.78;;;1.75;;
23743;SDS011;12052;53.478;10.182;2023-05-14T10:39:42;5.28;;;3.10;;
23743;SDS011;12052;53.478;10.182;2023-05-14T10:42:12;4.43;;;3.13;;
23743;SDS011;12052;53.478;10.182;2023-05-14T10:44:43;4.38;;;2.55;;
23743;SDS011;12052;53.478;10.182;2023-05-14T10:47:15;5.05;;;2.95;;
23743;SDS011;12052;53.478;10.182;2023-05-14T10:49:42;4.35;;;2.85;;
23743;SDS011;12052;53.478;10.182;2023-05-14T10:52:10;7.10;;;3.22;;
23743;SDS011;12052;53.478;10.182;2023-05-14T10:54:36;5.90;;;3.03;;
23743;SDS011;12052;53.478;10.182;2023-05-14T10:57:02;8.50;;;2.92;;
23743;SDS011;12052;53.478;10.182;2023-05-14T10:59:28;5.35;;;2.88;;
23743;SDS011;12052;53.478;10.182;2023-05-14T11:01:57;5.85;;;2.85;;
23743;SDS011;12052;53.478;10.182;2023-05-14T11:04:23;6.28;;;2.78;;
23743;SDS011;12052;53.478;10.182;2023-05-14T11:06:49;5.88;;;3.15;;
23743;SDS011;12052;53.478;10.182;2023-05-14T11:09:17;6.15;;;3.10;;
23743;SDS011;12052;53.478;10.182;2023-05-14T11:11:46;3.92;;;2.67;;
23743;SDS011;12052;53.478;10.182;2023-05-14T11:14:12;9.15;;;3.08;;
23743;SDS011;12052;53.478;10.182;2023-05-14T11:16:38;10.98;;;3.97;;
23743;SDS011;12052;53.478;10.182;2023-05-14T11:19:05;4.93;;;2.95;;
23743;SDS011;12052;53.478;10.182;2023-05-14T11:21:30;6.10;;;2.92;;
23743;SDS011;12052;53.478;10.182;2023-05-14T11:23:56;4.90;;;2.67;;
23743;SDS011;12052;53.478;10.182;2023-05-14T11:26:24;3.70;;;2.97;;
23743;SDS011;12052;53.478;10.182;2023-05-14T11:28:50;5.95;;;2.85;;
23743;SDS011;12052;53.478;10.182;2023-05-14T11:31:15;3.60;;;2.80;;
23743;SDS011;12052;53.478;10.182;2023-05-14T11:33:41;4.45;;;2.70;;
23743;SDS011;12052;53.478;10.182;2023-05-14T11:36:08;3.80;;;3.10;;
23743;SDS011;12052;53.478;10.182;2023-05-14T11:38:47;5.13;;;2.78;;
23743;SDS011;12052;53.478;10.182;2023-05-14T11:41:14;3.17;;;2.40;;
23743;SDS011;12052;53.478;10.182;2023-05-14T11:43:40;5.50;;;2.83;;
23743;SDS011;12052;53.478;10.182;2023-05-14T11:46:06;3.70;;;2.83;;
23743;SDS011;12052;53.478;10.182;2023-05-14T11:48:31;4.05;;;3.08;;
23743;SDS011;12052;53.478;10.182;2023-05-14T11:50:57;6.18;;;2.95;;
23743;SDS011;12052;53.478;10.182;2023-05-14T11:53:27;7.55;;;2.58;;
23743;SDS011;12052;53.478;10.182;2023-05-14T11:55:54;7.80;;;3.10;;
23743;SDS011;12052;53.478;10.182;2023-05-14T11:58:22;6.63;;;3.33;;
23743;SDS011;12052;53.478;10.182;2023-05-14T12:00:51;3.63;;;2.92;;
23743;SDS011;12052;53.478;10.182;2023-05-14T12:03:19;12.50;;;3.05;;
23743;SDS011;12052;53.478;10.182;2023-05-14T12:05:58;6.75;;;2.90;;
23743;SDS011;12052;53.478;10.182;2023-05-14T12:08:26;4.88;;;2.92;;
23743;SDS011;12052;53.478;10.182;2023-05-14T12:10:56;3.85;;;2.83;;
23743;SDS011;12052;53.478;10.182;2023-05-14T12:13:26;6.68;;;3.40;;
23743;SDS011;12052;53.478;10.182;2023-05-14T12:15:53;8.07;;;3.10;;
23743;SDS011;12052;53.478;10.182;2023-05-14T12:18:20;4.85;;;2.97;;
23743;SDS011;12052;53.478;10.182;2023-05-14T12:20:49;7.10;;;3.35;;
23743;SDS011;12052;53.478;10.182;2023-05-14T12:23:16;6.85;;;3.22;;
23743;SDS011;12052;53.478;10.182;2023-05-14T12:25:49;4.13;;;3.00;;
23743;SDS011;12052;53.478;10.182;2023-05-14T12:28:15;5.13;;;2.90;;
23743;SDS011;12052;53.478;10.182;2023-05-14T12:30:41;4.00;;;2.78;;
23743;SDS011;12052;53.478;10.182;2023-05-14T12:33:07;4.78;;;2.88;;
23743;SDS011;12052;53.478;10.182;2023-05-14T12:35:33;3.42;;;2.70;;
23743;SDS011;12052;53.478;10.182;2023-05-14T12:38:00;8.98;;;3.08;;
23743;SDS011;12052;53.478;10.182;2023-05-14T12:40:27;4.80;;;2.70;;
23743;SDS011;12052;53.478;10.182;2023-05-14T12:42:52;3.67;;;3.10;;
23743;SDS011;12052;53.478;10.182;2023-05-14T12:45:18;6.10;;;3.05;;
23743;SDS011;12052;53.478;10.182;2023-05-14T12:47:44;8.82;;;3.13;;
23743;SDS011;12052;53.478;10.182;2023-05-14T12:50:10;5.55;;;2.70;;
23743;SDS011;12052;53.478;10.182;2023-05-14T12:52:36;7.30;;;3.08;;
23743;SDS011;12052;53.478;10.182;2023-05-14T12:55:01;6.65;;;3.65;;
23743;SDS011;12052;53.478;10.182;2023-05-14T12:57:27;4.10;;;3.25;;
23743;SDS011;12052;53.478;10.182;2023-05-14T12:59:54;10.98;;;2.88;;
23743;SDS011;12052;53.478;10.182;2023-05-14T13:02:20;6.88;;;3.30;;
23743;SDS011;12052;53.478;10.182;2023-05-14T13:04:46;4.82;;;2.92;;
23743;SDS011;12052;53.478;10.182;2023-05-14T13:07:12;4.28;;;3.10;;
23743;SDS011;12052;53.478;10.182;2023-05-14T13:09:37;6.43;;;3.17;;
23743;SDS011;12052;53.478;10.182;2023-05-14T13:12:03;4.97;;;2.88;;
23743;SDS011;12052;53.478;10.182;2023-05-14T13:14:29;5.68;;;2.85;;
23743;SDS011;12052;53.478;10.182;2023-05-14T13:16:54;6.07;;;3.03;;
23743;SDS011;12052;53.478;10.182;2023-05-14T13:19:20;6.15;;;3.17;;
23743;SDS011;12052;53.478;10.182;2023-05-14T13:21:46;7.80;;;3.15;;
23743;SDS011;12052;53.478;10.182;2023-05-14T13:24:11;5.38;;;2.95;;
23743;SDS011;12052;53.478;10.182;2023-05-14T13:26:37;3.25;;;2.63;;
23743;SDS011;12052;53.478;10.182;2023-05-14T13:29:02;3.20;;;2.85;;
23743;SDS011;12052;53.478;10.182;2023-05-14T13:31:28;6.43;;;2.90;;
23743;SDS011;12052;53.478;10.182;2023-05-14T13:33:54;9.75;;;3.25;;
23743;SDS011;12052;53.478;10.182;2023-05-14T13:36:21;6.28;;;3.20;;
23743;SDS011;12052;53.478;10.182;2023-05-14T13:38:47;8.88;;;3.45;;
23743;SDS011;12052;53.478;10.182;2023-05-14T13:41:13;5.43;;;2.58;;
23743;SDS011;12052;53.478;10.182;2023-05-14T13:43:38;4.65;;;3.30;;
23743;SDS011;12052;53.478;10.182;2023-05-14T13:46:04;4.47;;;2.80;;
23743;SDS011;12052;53.478;10.182;2023-05-14T13:48:30;6.90;;;2.80;;
23743;SDS011;12052;53.478;10.182;2023-05-14T13:50:56;8.63;;;3.05;;
23743;SDS011;12052;53.478;10.182;2023-05-14T13:53:22;6.25;;;2.90;;
23743;SDS011;12052;53.478;10.182;2023-05-14T13:55:48;2.78;;;2.10;;
23743;SDS011;12052;53.478;10.182;2023-05-14T13:58:14;8.40;;;2.80;;
23743;SDS011;12052;53.478;10.182;2023-05-14T14:00:40;3.83;;;2.83;;
23743;SDS011;12052;53.478;10.182;2023-05-14T14:03:06;4.93;;;2.47;;
23743;SDS011;12052;53.478;10.182;2023-05-14T14:05:35;4.78;;;2.88;;
23743;SDS011;12052;53.478;10.182;2023-05-14T14:08:01;5.72;;;2.40;;
23743;SDS011;12052;53.478;10.182;2023-05-14T14:10:27;7.63;;;2.70;;
23743;SDS011;12052;53.478;10.182;2023-05-14T14:12:52;4.95;;;3.05;;
23743;SDS011;12052;53.478;10.182;2023-05-14T14:15:18;6.88;;;3.17;;
23743;SDS011;12052;53.478;10.182;2023-05-14T14:17:43;4.32;;;2.60;;
23743;SDS011;12052;53.478;10.182;2023-05-14T14:20:09;4.60;;;2.75;;
23743;SDS011;12052;53.478;10.182;2023-05-14T14:22:35;3.30;;;2.38;;
23743;SDS011;12052;53.478;10.182;2023-05-14T14:25:01;3.95;;;2.88;;
23743;SDS011;12052;53.478;10.182;2023-05-14T14:27:27;8.48;;;3.03;;
23743;SDS011;12052;53.478;10.182;2023-05-14T14:29:55;3.80;;;2.85;;
23743;SDS011;12052;53.478;10.182;2023-05-14T14:32:20;4.68;;;2.75;;
23743;SDS011;12052;53.478;10.182;2023-05-14T14:34:46;4.40;;;3.17;;
23743;SDS011;12052;53.478;10.182;2023-05-14T14:37:11;4.00;;;3.03;;